sensor_id;sensor_type;location;lat;lon;timestamp;temperature;humidity
35541;DHT22;21650;48.840;9.162;2023-04-25T00:01:06;8.80;99.90
35541;DHT22;21650;48.840;9.162;2023-04-25T00:03:32;8.80;99.90
35541;DHT22;21650;48.840;9.162;2023-04-25T00:05:58;8.80;99.90
35541;DHT22;21650;48.840;9.162;2023-04-25T00:08:28;8.70;99.90
35541;DHT22;21650;48.840;9.162;2023-04-25T00:10:54;8.70;99.90
35541;DHT22;21650;48.840;9.162;2023-04-25T00:13:20;8.70;99.90
35541;DHT22;21650;48.840;9.162;2023-04-25T00:15:46;8.70;99.90
35541;DHT22;21650;48.840;9.162;2023-04-25T00:18:13;8.80;99.90
35541;DHT22;21650;48.840;9.162;2023-04-25T00:20:39;8.80;99.90
35541;DHT22;21650;48.840;9.162;2023-04-25T00:23:05;8.70;99.90
35541;DHT22;21650;48.840;9.162;2023-04-25T00:25:30;8.90;99.90
35541;DHT22;21650;48.840;9.162;2023-04-25T00:27:56;8.90;99.90
35541;DHT22;21650;48.840;9.162;2023-04-25T00:30:21;9.00;99.90
35541;DHT22;21650;48.840;9.162;2023-04-25T00:32:47;9.00;99.90
35541;DHT22;21650;48.840;9.162;2023-04-25T00:35:12;9.00;99.90
35541;DHT22;21650;48.840;9.162;2023-04-25T00:37:38;9.00;99.90
35541;DHT22;21650;48.840;9.162;2023-04-25T00:40:05;9.10;99.90
35541;DHT22;21650;48.840;9.162;2023-04-25T00:42:31;9.20;99.90
35541;DHT22;21650;48.840;9.162;2023-04-25T00:44:58;9.00;99.90
35541;DHT22;21650;48.840;9.162;2023-04-25T00:47:24;9.10;99.90
35541;DHT22;21650;48.840;9.162;2023-04-25T00:49:50;9.10;99.90
35541;DHT22;21650;48.840;9.162;2023-04-25T00:52:15;9.00;99.90
35541;DHT22;21650;48.840;9.162;2023-04-25T00:54:41;9.00;99.90
35541;DHT22;21650;48.840;9.162;2023-04-25T00:57:07;9.00;99.90
35541;DHT22;21650;48.840;9.162;2023-04-25T00:59:33;9.10;99.90
35541;DHT22;21650;48.840;9.162;2023-04-25T01:01:59;9.10;99.90
35541;DHT22;21650;48.840;9.162;2023-04-25T01:04:27;9.10;99.90
35541;DHT22;21650;48.840;9.162;2023-04-25T01:06:53;9.10;99.90
35541;DHT22;21650;48.840;9.162;2023-04-25T01:09:20;9.20;99.90
35541;DHT22;21650;48.840;9.162;2023-04-25T01:11:46;9.20;99.90
35541;DHT22;21650;48.840;9.162;2023-04-25T01:14:11;9.10;99.90
35541;DHT22;21650;48.840;9.162;2023-04-25T01:16:37;9.20;99.90
35541;DHT22;21650;48.840;9.162;2023-04-25T01:19:08;9.20;99.90
35541;DHT22;21650;48.840;9.162;2023-04-25T01:21:36;9.20;99.90
35541;DHT22;21650;48.840;9.162;2023-04-25T01:24:02;9.20;99.90
35541;DHT22;21650;48.840;9.162;2023-04-25T01:26:28;9.20;99.90
35541;DHT22;21650;48.840;9.162;2023-04-25T01:28:53;9.20;99.90
35541;DHT22;21650;48.840;9.162;2023-04-25T01:31:19;9.20;99.90
35541;DHT22;21650;48.840;9.162;2023-04-25T01:33:45;9.10;99.90
35541;DHT22;21650;48.840;9.162;2023-04-25T01:36:11;9.10;99.90
35541;DHT22;21650;48.840;9.162;2023-04-25T01:38:37;9.10;99.90
35541;DHT22;21650;48.840;9.162;2023-04-25T01:41:02;9.10;99.90
35541;DHT22;21650;48.840;9.162;2023-04-25T01:43:28;8.90;99.90
35541;DHT22;21650;48.840;9.162;2023-04-25T01:45:54;8.80;99.90
35541;DHT22;21650;48.840;9.162;2023-04-25T01:48:20;8.80;99.90
35541;DHT22;21650;48.840;9.162;2023-04-25T01:50:46;8.80;99.90
35541;DHT22;21650;48.840;9.162;2023-04-25T01:53:13;8.70;99.90
35541;DHT22;21650;48.840;9.162;2023-04-25T01:55:38;8.60;99.90
35541;DHT22;21650;48.840;9.162;2023-04-25T01:58:04;8.60;99.90
35541;DHT22;21650;48.840;9.162;2023-04-25T02:00:35;8.60;99.90
35541;DHT22;21650;48.840;9.162;2023-04-25T02:03:03;8.60;99.90
35541;DHT22;21650;48.840;9.162;2023-04-25T02:05:34;8.60;99.90
35541;DHT22;21650;48.840;9.162;2023-04-25T02:08:00;8.60;99.90
35541;DHT22;21650;48.840;9.162;2023-04-25T02:10:25;8.70;99.90
35541;DHT22;21650;48.840;9.162;2023-04-25T02:12:51;8.60;99.90
35541;DHT22;21650;48.840;9.162;2023-04-25T02:15:16;8.70;99.90
35541;DHT22;21650;48.840;9.162;2023-04-25T02:17:42;8.70;99.90
35541;DHT22;21650;48.840;9.162;2023-04-25T02:20:07;8.70;99.90
35541;DHT22;21650;48.840;9.162;2023-04-25T02:22:33;8.70;99.90
35541;DHT22;21650;48.840;9.162;2023-04-25T02:25:00;8.60;99.90
35541;DHT22;21650;48.840;9.162;2023-04-25T02:27:26;8.60;99.90
35541;DHT22;21650;48.840;9.162;2023-04-25T02:29:51;8.60;99.90
35541;DHT22;21650;48.840;9.162;2023-04-25T02:32:17;8.40;99.90
35541;DHT22;21650;48.840;9.162;2023-04-25T02:34:42;8.30;99.90
35541;DHT22;21650;48.840;9.162;2023-04-25T02:37:08;8.30;99.90
35541;DHT22;21650;48.840;9.162;2023-04-25T02:39:33;8.20;99.90
35541;DHT22;21650;48.840;9.162;2023-04-25T02:41:59;8.20;99.90
35541;DHT22;21650;48.840;9.162;2023-04-25T02:44:26;8.10;99.90
35541;DHT22;21650;48.840;9.162;2023-04-25T02:46:51;8.20;99.90
35541;DHT22;21650;48.840;9.162;2023-04-25T02:49:17;8.20;99.90
35541;DHT22;21650;48.840;9.162;2023-04-25T02:51:42;8.10;99.90
35541;DHT22;21650;48.840;9.162;2023-04-25T02:54:08;8.20;99.90
35541;DHT22;21650;48.840;9.162;2023-04-25T02:56:33;8.10;99.90
35541;DHT22;21650;48.840;9.162;2023-04-25T02:58:59;8.10;99.90
35541;DHT22;21650;48.840;9.162;2023-04-25T03:01:24;8.10;99.90
35541;DHT22;21650;48.840;9.162;2023-04-25T03:03:50;8.10;99.90
35541;DHT22;21650;48.840;9.162;2023-04-25T03:06:15;8.10;99.90
35541;DHT22;21650;48.840;9.162;2023-04-25T03:08:41;8.10;99.90
35541;DHT22;21650;48.840;9.162;2023-04-25T03:11:06;8.10;99.90
35541;DHT22;21650;48.840;9.162;2023-04-25T03:13:32;8.20;99.90
35541;DHT22;21650;48.840;9.162;2023-04-25T03:15:57;8.20;99.90
35541;DHT22;21650;48.840;9.162;2023-04-25T03:18:23;8.20;99.90
35541;DHT22;21650;48.840;9.162;2023-04-25T03:20:48;8.20;99.90
35541;DHT22;21650;48.840;9.162;2023-04-25T03:23:14;8.20;99.90
35541;DHT22;21650;48.840;9.162;2023-04-25T03:25:40;8.30;99.90
35541;DHT22;21650;48.840;9.162;2023-04-25T03:28:05;8.30;99.90
35541;DHT22;21650;48.840;9.162;2023-04-25T03:30:31;8.40;99.90
35541;DHT22;21650;48.840;9.162;2023-04-25T03:32:57;8.20;99.90
35541;DHT22;21650;48.840;9.162;2023-04-25T03:35:22;8.20;99.90
35541;DHT22;21650;48.840;9.162;2023-04-25T03:37:49;8.20;99.90
35541;DHT22;21650;48.840;9.162;2023-04-25T03:40:14;8.00;99.90
35541;DHT22;21650;48.840;9.162;2023-04-25T03:42:40;8.00;99.90
35541;DHT22;21650;48.840;9.162;2023-04-25T03:45:06;8.10;99.90
35541;DHT22;21650;48.840;9.162;2023-04-25T03:47:32;8.10;99.90
35541;DHT22;21650;48.840;9.162;2023-04-25T03:49:57;8.10;99.90
35541;DHT22;21650;48.840;9.162;2023-04-25T03:52:23;8.20;99.90
35541;DHT22;21650;48.840;9.162;2023-04-25T03:54:48;8.20;99.90
35541;DHT22;21650;48.840;9.162;2023-04-25T03:57:14;8.30;99.90
35541;DHT22;21650;48.840;9.162;2023-04-25T03:59:39;8.30;99.90
35541;DHT22;21650;48.840;9.162;2023-04-25T04:02:06;8.30;99.90
35541;DHT22;21650;48.840;9.162;2023-04-25T04:04:31;8.20;99.90
35541;DHT22;21650;48.840;9.162;2023-04-25T04:06:57;8.20;99.90
35541;DHT22;21650;48.840;9.162;2023-04-25T04:09:22;8.10;99.90
35541;DHT22;21650;48.840;9.162;2023-04-25T04:11:48;8.10;99.90
35541;DHT22;21650;48.840;9.162;2023-04-25T04:14:13;8.10;99.90
35541;DHT22;21650;48.840;9.162;2023-04-25T04:16:39;8.10;99.90
35541;DHT22;21650;48.840;9.162;2023-04-25T04:19:04;8.10;99.90
35541;DHT22;21650;48.840;9.162;2023-04-25T04:21:30;8.10;99.90
35541;DHT22;21650;48.840;9.162;2023-04-25T04:23:57;8.10;99.90
35541;DHT22;21650;48.840;9.162;2023-04-25T04:26:23;8.00;99.90
35541;DHT22;21650;48.840;9.162;2023-04-25T04:28:49;8.00;99.90
35541;DHT22;21650;48.840;9.162;2023-04-25T04:31:17;8.00;99.90
35541;DHT22;21650;48.840;9.162;2023-04-25T04:33:45;8.00;99.90
35541;DHT22;21650;48.840;9.162;2023-04-25T04:36:11;8.00;99.90
35541;DHT22;21650;48.840;9.162;2023-04-25T04:38:36;8.00;99.90
35541;DHT22;21650;48.840;9.162;2023-04-25T04:41:02;8.00;99.90
35541;DHT22;21650;48.840;9.162;2023-04-25T04:43:28;8.00;99.90
35541;DHT22;21650;48.840;9.162;2023-04-25T04:45:55;8.00;99.90
35541;DHT22;21650;48.840;9.162;2023-04-25T04:48:23;8.10;99.90
35541;DHT22;21650;48.840;9.162;2023-04-25T04:50:49;8.10;99.90
35541;DHT22;21650;48.840;9.162;2023-04-25T04:53:14;8.10;99.90
35541;DHT22;21650;48.840;9.162;2023-04-25T04:55:40;8.00;99.90
35541;DHT22;21650;48.840;9.162;2023-04-25T04:58:06;8.00;99.90
35541;DHT22;21650;48.840;9.162;2023-04-25T05:00:32;8.10;99.90
35541;DHT22;21650;48.840;9.162;2023-04-25T05:02:58;8.10;99.90
35541;DHT22;21650;48.840;9.162;2023-04-25T05:05:24;8.10;99.90
35541;DHT22;21650;48.840;9.162;2023-04-25T05:07:50;8.20;99.90
35541;DHT22;21650;48.840;9.162;2023-04-25T05:10:19;8.20;99.90
35541;DHT22;21650;48.840;9.162;2023-04-25T05:12:45;8.30;99.90
35541;DHT22;21650;48.840;9.162;2023-04-25T05:15:11;8.30;99.90
35541;DHT22;21650;48.840;9.162;2023-04-25T05:17:37;8.40;99.90
35541;DHT22;21650;48.840;9.162;2023-04-25T05:20:02;8.30;99.90
35541;DHT22;21650;48.840;9.162;2023-04-25T05:22:31;8.30;99.90
35541;DHT22;21650;48.840;9.162;2023-04-25T05:24:56;8.30;99.90
35541;DHT22;21650;48.840;9.162;2023-04-25T05:27:22;8.30;99.90
35541;DHT22;21650;48.840;9.162;2023-04-25T05:29:47;8.30;99.90
35541;DHT22;21650;48.840;9.162;2023-04-25T05:32:13;8.30;99.90
35541;DHT22;21650;48.840;9.162;2023-04-25T05:34:38;8.30;99.90
35541;DHT22;21650;48.840;9.162;2023-04-25T05:37:04;8.30;99.90
35541;DHT22;21650;48.840;9.162;2023-04-25T05:39:30;8.30;99.90
35541;DHT22;21650;48.840;9.162;2023-04-25T05:41:55;8.30;99.90
35541;DHT22;21650;48.840;9.162;2023-04-25T05:44:21;8.20;99.90
35541;DHT22;21650;48.840;9.162;2023-04-25T05:46:46;8.20;99.90
35541;DHT22;21650;48.840;9.162;2023-04-25T05:49:12;8.10;99.90
35541;DHT22;21650;48.840;9.162;2023-04-25T05:51:38;8.20;99.90
35541;DHT22;21650;48.840;9.162;2023-04-25T05:54:04;8.10;99.90
35541;DHT22;21650;48.840;9.162;2023-04-25T05:56:29;8.10;99.90
35541;DHT22;21650;48.840;9.162;2023-04-25T05:58:55;8.00;99.90
35541;DHT22;21650;48.840;9.162;2023-04-25T06:01:22;7.90;99.90
35541;DHT22;21650;48.840;9.162;2023-04-25T06:03:48;7.90;99.90
35541;DHT22;21650;48.840;9.162;2023-04-25T06:06:13;7.90;99.90
35541;DHT22;21650;48.840;9.162;2023-04-25T06:08:40;7.90;99.90
35541;DHT22;21650;48.840;9.162;2023-04-25T06:11:06;8.00;99.90
35541;DHT22;21650;48.840;9.162;2023-04-25T06:13:31;8.10;99.90
35541;DHT22;21650;48.840;9.162;2023-04-25T06:15:57;8.10;99.90
35541;DHT22;21650;48.840;9.162;2023-04-25T06:18:22;8.30;99.90
35541;DHT22;21650;48.840;9.162;2023-04-25T06:20:48;8.30;99.90
35541;DHT22;21650;48.840;9.162;2023-04-25T06:23:13;8.40;99.90
35541;DHT22;21650;48.840;9.162;2023-04-25T06:25:39;8.50;99.90
35541;DHT22;21650;48.840;9.162;2023-04-25T06:28:05;8.50;99.90
35541;DHT22;21650;48.840;9.162;2023-04-25T06:30:30;8.60;99.90
35541;DHT22;21650;48.840;9.162;2023-04-25T06:32:56;8.70;99.90
35541;DHT22;21650;48.840;9.162;2023-04-25T06:35:21;8.90;99.90
35541;DHT22;21650;48.840;9.162;2023-04-25T06:37:47;9.10;99.90
35541;DHT22;21650;48.840;9.162;2023-04-25T06:40:13;9.20;99.90
35541;DHT22;21650;48.840;9.162;2023-04-25T06:42:38;9.10;99.90
35541;DHT22;21650;48.840;9.162;2023-04-25T06:45:04;9.00;99.90
35541;DHT22;21650;48.840;9.162;2023-04-25T06:47:30;9.20;99.90
35541;DHT22;21650;48.840;9.162;2023-04-25T06:49:55;9.40;99.90
35541;DHT22;21650;48.840;9.162;2023-04-25T06:52:21;9.20;99.90
35541;DHT22;21650;48.840;9.162;2023-04-25T06:54:46;9.10;99.90
35541;DHT22;21650;48.840;9.162;2023-04-25T06:57:12;8.90;99.90
35541;DHT22;21650;48.840;9.162;2023-04-25T06:59:38;8.80;99.90
35541;DHT22;21650;48.840;9.162;2023-04-25T07:02:03;8.80;99.90
35541;DHT22;21650;48.840;9.162;2023-04-25T07:04:29;8.80;99.90
35541;DHT22;21650;48.840;9.162;2023-04-25T07:06:56;8.80;99.90
35541;DHT22;21650;48.840;9.162;2023-04-25T07:09:21;8.80;99.90
35541;DHT22;21650;48.840;9.162;2023-04-25T07:11:47;8.80;99.90
35541;DHT22;21650;48.840;9.162;2023-04-25T07:14:13;8.70;99.90
35541;DHT22;21650;48.840;9.162;2023-04-25T07:16:38;8.70;99.90
35541;DHT22;21650;48.840;9.162;2023-04-25T07:19:04;8.70;99.90
35541;DHT22;21650;48.840;9.162;2023-04-25T07:21:29;8.80;99.90
35541;DHT22;21650;48.840;9.162;2023-04-25T07:23:56;8.90;99.90
35541;DHT22;21650;48.840;9.162;2023-04-25T07:26:22;8.80;99.90
35541;DHT22;21650;48.840;9.162;2023-04-25T07:28:47;8.70;99.90
35541;DHT22;21650;48.840;9.162;2023-04-25T07:31:16;8.80;99.90
35541;DHT22;21650;48.840;9.162;2023-04-25T07:33:43;8.80;99.90
35541;DHT22;21650;48.840;9.162;2023-04-25T07:36:10;8.80;99.90
35541;DHT22;21650;48.840;9.162;2023-04-25T07:38:35;8.80;99.90
35541;DHT22;21650;48.840;9.162;2023-04-25T07:41:01;8.70;99.90
35541;DHT22;21650;48.840;9.162;2023-04-25T07:43:27;8.70;99.90
35541;DHT22;21650;48.840;9.162;2023-04-25T07:45:52;8.70;99.90
35541;DHT22;21650;48.840;9.162;2023-04-25T07:48:18;8.60;99.90
35541;DHT22;21650;48.840;9.162;2023-04-25T07:50:44;8.60;99.90
35541;DHT22;21650;48.840;9.162;2023-04-25T07:53:10;8.70;99.90
35541;DHT22;21650;48.840;9.162;2023-04-25T07:55:36;8.70;99.90
35541;DHT22;21650;48.840;9.162;2023-04-25T07:58:07;8.70;99.90
35541;DHT22;21650;48.840;9.162;2023-04-25T08:00:34;8.70;99.90
35541;DHT22;21650;48.840;9.162;2023-04-25T08:02:59;8.80;99.90
35541;DHT22;21650;48.840;9.162;2023-04-25T08:05:25;8.90;99.90
35541;DHT22;21650;48.840;9.162;2023-04-25T08:07:50;9.00;99.90
35541;DHT22;21650;48.840;9.162;2023-04-25T08:10:16;9.10;99.90
35541;DHT22;21650;48.840;9.162;2023-04-25T08:12:41;9.00;99.90
35541;DHT22;21650;48.840;9.162;2023-04-25T08:15:08;8.80;99.90
35541;DHT22;21650;48.840;9.162;2023-04-25T08:17:33;8.60;99.90
35541;DHT22;21650;48.840;9.162;2023-04-25T08:19:59;8.40;99.90
35541;DHT22;21650;48.840;9.162;2023-04-25T08:22:25;8.40;99.90
35541;DHT22;21650;48.840;9.162;2023-04-25T08:24:50;8.60;99.90
35541;DHT22;21650;48.840;9.162;2023-04-25T08:27:16;8.30;99.90
35541;DHT22;21650;48.840;9.162;2023-04-25T08:29:42;8.40;99.90
35541;DHT22;21650;48.840;9.162;2023-04-25T08:32:07;8.60;99.90
35541;DHT22;21650;48.840;9.162;2023-04-25T08:34:33;8.70;99.90
35541;DHT22;21650;48.840;9.162;2023-04-25T08:36:58;8.80;99.90
35541;DHT22;21650;48.840;9.162;2023-04-25T08:39:24;8.60;99.90
35541;DHT22;21650;48.840;9.162;2023-04-25T08:41:50;8.50;99.90
35541;DHT22;21650;48.840;9.162;2023-04-25T08:44:16;8.30;99.90
35541;DHT22;21650;48.840;9.162;2023-04-25T08:46:42;8.20;99.90
35541;DHT22;21650;48.840;9.162;2023-04-25T08:49:13;8.10;99.90
35541;DHT22;21650;48.840;9.162;2023-04-25T08:51:46;8.30;99.90
35541;DHT22;21650;48.840;9.162;2023-04-25T08:54:16;8.40;99.90
35541;DHT22;21650;48.840;9.162;2023-04-25T08:56:44;8.40;99.90
35541;DHT22;21650;48.840;9.162;2023-04-25T08:59:11;8.30;99.90
35541;DHT22;21650;48.840;9.162;2023-04-25T09:01:37;8.30;99.90
35541;DHT22;21650;48.840;9.162;2023-04-25T09:04:03;8.40;99.90
35541;DHT22;21650;48.840;9.162;2023-04-25T09:06:29;8.40;99.90
35541;DHT22;21650;48.840;9.162;2023-04-25T09:09:05;8.50;99.90
35541;DHT22;21650;48.840;9.162;2023-04-25T09:11:32;8.20;99.90
35541;DHT22;21650;48.840;9.162;2023-04-25T09:14:15;8.00;99.90
35541;DHT22;21650;48.840;9.162;2023-04-25T09:17:13;8.20;99.90
35541;DHT22;21650;48.840;9.162;2023-04-25T09:19:39;8.20;99.90
35541;DHT22;21650;48.840;9.162;2023-04-25T09:22:06;8.20;99.90
35541;DHT22;21650;48.840;9.162;2023-04-25T09:27:03;8.20;99.90
35541;DHT22;21650;48.840;9.162;2023-04-25T09:29:31;8.20;99.90
35541;DHT22;21650;48.840;9.162;2023-04-25T09:34:47;8.10;99.90
35541;DHT22;21650;48.840;9.162;2023-04-25T09:37:27;8.00;99.90
35541;DHT22;21650;48.840;9.162;2023-04-25T09:39:55;8.00;99.90
35541;DHT22;21650;48.840;9.162;2023-04-25T09:42:25;8.00;99.90
35541;DHT22;21650;48.840;9.162;2023-04-25T09:44:52;8.10;99.90
35541;DHT22;21650;48.840;9.162;2023-04-25T09:47:18;8.00;99.90
35541;DHT22;21650;48.840;9.162;2023-04-25T09:49:46;7.90;99.90
35541;DHT22;21650;48.840;9.162;2023-04-25T09:52:17;7.90;99.90
35541;DHT22;21650;48.840;9.162;2023-04-25T09:54:44;7.90;99.90
35541;DHT22;21650;48.840;9.162;2023-04-25T09:57:21;8.00;99.90
35541;DHT22;21650;48.840;9.162;2023-04-25T10:02:17;7.80;99.90
35541;DHT22;21650;48.840;9.162;2023-04-25T10:04:46;7.50;99.90
35541;DHT22;21650;48.840;9.162;2023-04-25T10:07:13;7.30;99.90
35541;DHT22;21650;48.840;9.162;2023-04-25T10:09:39;7.30;99.90
35541;DHT22;21650;48.840;9.162;2023-04-25T10:12:06;6.90;99.90
35541;DHT22;21650;48.840;9.162;2023-04-25T10:14:32;7.00;99.90
35541;DHT22;21650;48.840;9.162;2023-04-25T10:16:59;6.90;99.90
35541;DHT22;21650;48.840;9.162;2023-04-25T10:19:25;6.90;99.90
35541;DHT22;21650;48.840;9.162;2023-04-25T10:24:21;6.80;99.90
35541;DHT22;21650;48.840;9.162;2023-04-25T10:26:47;6.90;99.90
35541;DHT22;21650;48.840;9.162;2023-04-25T10:29:22;7.00;99.90
35541;DHT22;21650;48.840;9.162;2023-04-25T10:31:48;7.00;99.90
35541;DHT22;21650;48.840;9.162;2023-04-25T10:34:15;7.00;99.90
35541;DHT22;21650;48.840;9.162;2023-04-25T10:36:41;6.90;99.90
35541;DHT22;21650;48.840;9.162;2023-04-25T10:39:08;6.80;99.90
35541;DHT22;21650;48.840;9.162;2023-04-25T10:41:47;6.80;99.90
35541;DHT22;21650;48.840;9.162;2023-04-25T10:44:13;6.80;99.90
35541;DHT22;21650;48.840;9.162;2023-04-25T10:46:39;6.70;99.90
35541;DHT22;21650;48.840;9.162;2023-04-25T10:49:08;6.70;99.90
35541;DHT22;21650;48.840;9.162;2023-04-25T10:51:34;6.80;99.90
35541;DHT22;21650;48.840;9.162;2023-04-25T10:56:30;7.00;99.90
35541;DHT22;21650;48.840;9.162;2023-04-25T10:59:23;7.00;99.90
35541;DHT22;21650;48.840;9.162;2023-04-25T11:01:53;7.00;99.90
35541;DHT22;21650;48.840;9.162;2023-04-25T11:04:24;7.20;99.90
35541;DHT22;21650;48.840;9.162;2023-04-25T11:07:18;7.30;99.90
35541;DHT22;21650;48.840;9.162;2023-04-25T11:09:49;7.40;99.90
35541;DHT22;21650;48.840;9.162;2023-04-25T11:12:14;7.40;99.90
35541;DHT22;21650;48.840;9.162;2023-04-25T11:14:41;7.50;99.90
35541;DHT22;21650;48.840;9.162;2023-04-25T11:17:07;7.40;99.90
35541;DHT22;21650;48.840;9.162;2023-04-25T11:19:32;7.20;99.90
35541;DHT22;21650;48.840;9.162;2023-04-25T11:21:59;7.40;99.90
35541;DHT22;21650;48.840;9.162;2023-04-25T11:24:33;7.50;99.90
35541;DHT22;21650;48.840;9.162;2023-04-25T11:27:00;7.60;99.90
35541;DHT22;21650;48.840;9.162;2023-04-25T11:29:28;7.80;99.90
35541;DHT22;21650;48.840;9.162;2023-04-25T11:31:54;7.90;99.90
35541;DHT22;21650;48.840;9.162;2023-04-25T11:34:23;8.00;99.90
35541;DHT22;21650;48.840;9.162;2023-04-25T11:36:50;8.20;99.90
35541;DHT22;21650;48.840;9.162;2023-04-25T11:39:15;8.10;99.90
35541;DHT22;21650;48.840;9.162;2023-04-25T11:41:41;8.00;99.90
35541;DHT22;21650;48.840;9.162;2023-04-25T11:44:07;7.90;99.90
35541;DHT22;21650;48.840;9.162;2023-04-25T11:46:36;7.80;99.90
35541;DHT22;21650;48.840;9.162;2023-04-25T11:49:02;7.70;99.90
35541;DHT22;21650;48.840;9.162;2023-04-25T11:51:27;7.60;99.90
35541;DHT22;21650;48.840;9.162;2023-04-25T11:53:53;7.90;99.90
35541;DHT22;21650;48.840;9.162;2023-04-25T11:56:20;8.10;99.90
35541;DHT22;21650;48.840;9.162;2023-04-25T11:59:00;8.10;99.90
35541;DHT22;21650;48.840;9.162;2023-04-25T12:01:30;8.20;99.90
35541;DHT22;21650;48.840;9.162;2023-04-25T12:03:56;8.20;99.90
35541;DHT22;21650;48.840;9.162;2023-04-25T12:06:29;8.00;99.90
35541;DHT22;21650;48.840;9.162;2023-04-25T12:09:07;7.90;99.90
35541;DHT22;21650;48.840;9.162;2023-04-25T12:11:43;8.00;99.90
35541;DHT22;21650;48.840;9.162;2023-04-25T12:14:10;7.90;99.90
35541;DHT22;21650;48.840;9.162;2023-04-25T12:16:42;7.90;99.90
35541;DHT22;21650;48.840;9.162;2023-04-25T12:19:08;8.00;99.90
35541;DHT22;21650;48.840;9.162;2023-04-25T12:21:33;7.70;99.90
35541;DHT22;21650;48.840;9.162;2023-04-25T12:24:22;7.70;99.90
35541;DHT22;21650;48.840;9.162;2023-04-25T12:26:52;7.90;99.90
35541;DHT22;21650;48.840;9.162;2023-04-25T12:29:19;7.80;99.90
35541;DHT22;21650;48.840;9.162;2023-04-25T12:31:45;7.70;99.90
35541;DHT22;21650;48.840;9.162;2023-04-25T12:34:11;7.80;99.90
35541;DHT22;21650;48.840;9.162;2023-04-25T12:36:36;8.10;99.90
35541;DHT22;21650;48.840;9.162;2023-04-25T12:39:02;8.60;99.90
35541;DHT22;21650;48.840;9.162;2023-04-25T12:41:29;8.80;99.90
35541;DHT22;21650;48.840;9.162;2023-04-25T12:43:55;9.00;99.90
35541;DHT22;21650;48.840;9.162;2023-04-25T12:46:21;8.90;99.90
35541;DHT22;21650;48.840;9.162;2023-04-25T12:48:48;9.20;99.90
35541;DHT22;21650;48.840;9.162;2023-04-25T12:51:14;9.40;99.90
35541;DHT22;21650;48.840;9.162;2023-04-25T12:53:40;9.50;99.90
35541;DHT22;21650;48.840;9.162;2023-04-25T12:56:07;9.90;99.90
35541;DHT22;21650;48.840;9.162;2023-04-25T12:58:32;10.10;99.90
35541;DHT22;21650;48.840;9.162;2023-04-25T13:00:59;9.90;99.90
35541;DHT22;21650;48.840;9.162;2023-04-25T13:03:24;9.90;99.90
35541;DHT22;21650;48.840;9.162;2023-04-25T13:05:51;9.60;99.90
35541;DHT22;21650;48.840;9.162;2023-04-25T13:08:18;9.50;99.90
35541;DHT22;21650;48.840;9.162;2023-04-25T13:10:43;9.20;99.90
35541;DHT22;21650;48.840;9.162;2023-04-25T13:13:09;9.30;99.90
35541;DHT22;21650;48.840;9.162;2023-04-25T13:15:34;9.50;99.90
35541;DHT22;21650;48.840;9.162;2023-04-25T13:18:00;9.70;99.90
35541;DHT22;21650;48.840;9.162;2023-04-25T13:20:26;9.50;99.90
35541;DHT22;21650;48.840;9.162;2023-04-25T13:22:51;9.30;99.90
35541;DHT22;21650;48.840;9.162;2023-04-25T13:25:17;9.30;99.90
35541;DHT22;21650;48.840;9.162;2023-04-25T13:27:42;9.60;99.90
35541;DHT22;21650;48.840;9.162;2023-04-25T13:30:09;9.40;99.90
35541;DHT22;21650;48.840;9.162;2023-04-25T13:32:36;9.30;99.90
35541;DHT22;21650;48.840;9.162;2023-04-25T13:35:12;9.10;99.90
35541;DHT22;21650;48.840;9.162;2023-04-25T13:37:39;9.20;99.90
35541;DHT22;21650;48.840;9.162;2023-04-25T13:40:08;9.20;99.90
35541;DHT22;21650;48.840;9.162;2023-04-25T13:42:38;9.20;99.90
35541;DHT22;21650;48.840;9.162;2023-04-25T13:45:04;9.40;99.90
35541;DHT22;21650;48.840;9.162;2023-04-25T13:47:30;9.50;99.90
35541;DHT22;21650;48.840;9.162;2023-04-25T13:49:56;9.70;99.90
35541;DHT22;21650;48.840;9.162;2023-04-25T13:52:21;9.80;99.90
35541;DHT22;21650;48.840;9.162;2023-04-25T13:54:49;9.80;99.90
35541;DHT22;21650;48.840;9.162;2023-04-25T13:57:15;9.50;99.90
35541;DHT22;21650;48.840;9.162;2023-04-25T13:59:40;9.60;99.90
35541;DHT22;21650;48.840;9.162;2023-04-25T14:02:06;9.60;99.90
35541;DHT22;21650;48.840;9.162;2023-04-25T14:04:32;9.80;99.90
35541;DHT22;21650;48.840;9.162;2023-04-25T14:06:58;9.80;99.90
35541;DHT22;21650;48.840;9.162;2023-04-25T14:09:23;9.80;99.90
35541;DHT22;21650;48.840;9.162;2023-04-25T14:11:54;9.90;99.90
35541;DHT22;21650;48.840;9.162;2023-04-25T14:14:20;10.10;99.90
35541;DHT22;21650;48.840;9.162;2023-04-25T14:16:47;10.90;99.90
35541;DHT22;21650;48.840;9.162;2023-04-25T14:19:16;11.60;99.90
35541;DHT22;21650;48.840;9.162;2023-04-25T14:21:42;12.20;99.90
35541;DHT22;21650;48.840;9.162;2023-04-25T14:24:09;11.70;99.90
35541;DHT22;21650;48.840;9.162;2023-04-25T14:26:36;11.40;99.90
35541;DHT22;21650;48.840;9.162;2023-04-25T14:29:02;11.30;99.90
35541;DHT22;21650;48.840;9.162;2023-04-25T14:31:28;10.90;99.90
35541;DHT22;21650;48.840;9.162;2023-04-25T14:33:53;10.70;99.90
35541;DHT22;21650;48.840;9.162;2023-04-25T14:36:19;10.70;99.90
35541;DHT22;21650;48.840;9.162;2023-04-25T14:38:45;10.50;99.90
35541;DHT22;21650;48.840;9.162;2023-04-25T14:41:11;10.20;99.90
35541;DHT22;21650;48.840;9.162;2023-04-25T14:43:36;10.30;99.90
35541;DHT22;21650;48.840;9.162;2023-04-25T14:46:02;10.60;99.90
35541;DHT22;21650;48.840;9.162;2023-04-25T14:48:29;11.10;99.90
35541;DHT22;21650;48.840;9.162;2023-04-25T14:50:54;10.90;99.90
35541;DHT22;21650;48.840;9.162;2023-04-25T14:53:22;11.10;99.90
35541;DHT22;21650;48.840;9.162;2023-04-25T14:55:47;11.00;99.90
35541;DHT22;21650;48.840;9.162;2023-04-25T14:58:14;11.30;99.90
35541;DHT22;21650;48.840;9.162;2023-04-25T15:00:40;11.40;99.90
35541;DHT22;21650;48.840;9.162;2023-04-25T15:03:05;11.10;99.90
35541;DHT22;21650;48.840;9.162;2023-04-25T15:05:34;11.10;99.90
35541;DHT22;21650;48.840;9.162;2023-04-25T15:07:59;11.60;99.90
35541;DHT22;21650;48.840;9.162;2023-04-25T15:10:25;11.70;99.90
35541;DHT22;21650;48.840;9.162;2023-04-25T15:12:51;11.40;99.90
35541;DHT22;21650;48.840;9.162;2023-04-25T15:15:18;11.20;99.90
35541;DHT22;21650;48.840;9.162;2023-04-25T15:17:44;11.30;99.90
35541;DHT22;21650;48.840;9.162;2023-04-25T15:20:11;11.70;99.90
35541;DHT22;21650;48.840;9.162;2023-04-25T15:22:41;11.50;99.90
35541;DHT22;21650;48.840;9.162;2023-04-25T15:25:07;11.50;99.90
35541;DHT22;21650;48.840;9.162;2023-04-25T15:27:37;11.50;99.90
35541;DHT22;21650;48.840;9.162;2023-04-25T15:30:06;11.00;99.90
35541;DHT22;21650;48.840;9.162;2023-04-25T15:32:33;10.90;99.90
35541;DHT22;21650;48.840;9.162;2023-04-25T15:34:59;11.10;99.90
35541;DHT22;21650;48.840;9.162;2023-04-25T15:37:25;11.30;99.90
35541;DHT22;21650;48.840;9.162;2023-04-25T15:40:03;11.10;99.90
35541;DHT22;21650;48.840;9.162;2023-04-25T15:42:43;11.10;99.90
35541;DHT22;21650;48.840;9.162;2023-04-25T15:45:12;10.90;99.90
35541;DHT22;21650;48.840;9.162;2023-04-25T15:47:38;10.70;99.90
35541;DHT22;21650;48.840;9.162;2023-04-25T15:50:05;10.80;99.90
35541;DHT22;21650;48.840;9.162;2023-04-25T15:52:33;10.80;99.90
35541;DHT22;21650;48.840;9.162;2023-04-25T15:54:59;10.80;99.90